Time;durP1;ratioP1;P1;durP2;ratioP2;P2;SDS_P1;SDS_P2;PMS_P1;PMS_P2;Temp;Humidity;BMP_temperature;BMP_pressure;BME280_temperature;BME280_humidity;BME280_pressure;Samples;Min_cycle;Max_cycle;Signal;HPM_P1;HPM_P2
2023/05/10 00:01:07;;;;;;;1.63;1.13;;;13.30;99.90;;;;;;5091448;28;20082;-69
2023/05/10 00:03:33;;;;;;;3.65;1.30;;;13.30;99.90;;;;;;5090026;28;20466;-72
2023/05/10 00:05:59;;;;;;;3.28;1.23;;;13.30;99.90;;;;;;5091575;28;20039;-70
2023/05/10 00:08:24;;;;;;;2.03;1.38;;;13.30;99.90;;;;;;5089282;28;20043;-69
2023/05/10 00:10:50;;;;;;;2.47;1.50;;;13.30;99.90;;;;;;5078114;28;20728;-69
2023/05/10 00:13:16;;;;;;;2.70;1.48;;;13.40;99.90;;;;;;5090653;28;20024;-69
2023/05/10 00:15:41;;;;;;;3.42;1.30;;;13.50;99.90;;;;;;5089269;28;20028;-70
2023/05/10 00:18:07;;;;;;;2.03;0.98;;;13.50;99.90;;;;;;5095493;28;20529;-69
2023/05/10 00:20:33;;;;;;;6.00;1.42;;;13.40;99.90;;;;;;5095369;28;20108;-70
2023/05/10 00:22:58;;;;;;;2.30;1.40;;;13.50;99.90;;;;;;5092266;28;20634;-70
2023/05/10 00:25:24;;;;;;;2.47;1.30;;;13.40;99.90;;;;;;5088272;28;20039;-70
2023/05/10 00:27:50;;;;;;;2.95;1.67;;;13.40;99.90;;;;;;5091914;28;20036;-70
2023/05/10 00:30:16;;;;;;;2.47;1.70;;;13.40;99.90;;;;;;5087766;28;20140;-69
2023/05/10 00:32:41;;;;;;;3.20;1.70;;;13.40;99.90;;;;;;5086301;28;20058;-71
2023/05/10 00:35:08;;;;;;;2.22;1.60;;;13.50;99.90;;;;;;5090228;28;20028;-70
2023/05/10 00:37:33;;;;;;;3.40;1.55;;;13.50;99.90;;;;;;5087200;28;20044;-71
2023/05/10 00:39:59;;;;;;;2.40;1.25;;;13.50;99.90;;;;;;5088293;28;20464;-70
2023/05/10 00:42:25;;;;;;;2.90;1.48;;;13.40;99.90;;;;;;5086250;28;20073;-70
2023/05/10 00:44:50;;;;;;;3.67;1.70;;;13.30;99.90;;;;;;5092793;28;20020;-71
2023/05/10 00:47:16;;;;;;;3.95;1.52;;;13.30;99.90;;;;;;5086931;28;20052;-71
2023/05/10 00:49:43;;;;;;;2.92;1.48;;;13.20;99.90;;;;;;5073301;28;20082;-71
2023/05/10 00:52:09;;;;;;;2.80;1.35;;;13.20;99.90;;;;;;5086711;28;20476;-71
2023/05/10 00:54:36;;;;;;;5.20;1.58;;;13.20;99.90;;;;;;5086072;28;20044;-71
2023/05/10 00:57:01;;;;;;;4.80;1.90;;;13.20;99.90;;;;;;5085814;28;20686;-70
2023/05/10 00:59:28;;;;;;;3.70;1.30;;;13.20;99.90;;;;;;5087239;28;20043;-70
2023/05/10 01:01:54;;;;;;;1.40;1.10;;;13.20;99.90;;;;;;5089185;28;20517;-72
2023/05/10 01:04:25;;;;;;;3.10;1.90;;;13.30;99.90;;;;;;5090722;28;20035;-69
2023/05/10 01:06:53;;;;;;;7.28;1.75;;;13.30;99.90;;;;;;5079426;28;20035;-71
2023/05/10 01:12:50;;;;;;;1.98;1.20;;;13.20;99.90;;;;;;5084979;28;20035;-71
2023/05/10 01:15:17;;;;;;;1.70;1.25;;;13.20;99.90;;;;;;5084722;28;20392;-71
2023/05/10 01:17:46;;;;;;;5.95;1.25;;;13.20;99.90;;;;;;5084626;28;20114;-71
2023/05/10 01:20:12;;;;;;;2.28;1.30;;;13.20;99.90;;;;;;5081788;28;20032;-70
2023/05/10 01:23:04;;;;;;;1.73;0.80;;;13.20;99.90;;;;;;5085805;28;20085;-71
2023/05/10 01:26:10;;;;;;;2.05;0.50;;;13.10;99.90;;;;;;5084443;28;20036;-70
2023/05/10 01:29:33;;;;;;;4.10;0.50;;;12.90;99.90;;;;;;5086148;28;20036;-69
2023/05/10 01:32:26;;;;;;;0.80;0.10;;;12.90;99.90;;;;;;5016765;28;20036;-72
2023/05/10 01:35:22;;;;;;;0.28;0.20;;;12.70;99.90;;;;;;5021376;28;20068;-71
2023/05/10 01:37:52;;;;;;;0.17;0.10;;;12.70;99.90;;;;;;5022747;28;20049;-69
2023/05/10 01:40:57;;;;;;;0.28;0.17;;;12.60;99.90;;;;;;5026970;28;20025;-69
2023/05/10 01:43:30;;;;;;;0.30;0.10;;;12.50;99.90;;;;;;5033439;28;20393;-70
2023/05/10 01:46:10;;;;;;;1.50;0.28;;;12.50;99.90;;;;;;5020026;28;20052;-70
2023/05/10 01:48:46;;;;;;;0.30;0.20;;;12.40;99.90;;;;;;5019223;28;20037;-70
2023/05/10 01:51:16;;;;;;;0.60;0.20;;;12.40;99.90;;;;;;5025364;28;20103;-71
2023/05/10 01:53:44;;;;;;;0.90;0.20;;;12.30;99.90;;;;;;5035829;28;20505;-70
2023/05/10 01:56:12;;;;;;;0.50;0.38;;;12.30;99.90;;;;;;5027669;28;20048;-71
2023/05/10 01:58:40;;;;;;;1.75;0.60;;;12.20;99.90;;;;;;5008712;28;20029;-69
2023/05/10 02:01:08;;;;;;;0.88;0.28;;;12.10;99.90;;;;;;5025374;28;20037;-71
2023/05/10 02:03:35;;;;;;;0.75;0.35;;;12.10;99.90;;;;;;5078559;28;20500;-70
2023/05/10 02:06:02;;;;;;;1.00;0.47;;;12.10;99.90;;;;;;5090469;28;20417;-70
2023/05/10 02:08:28;;;;;;;2.15;0.45;;;12.10;99.90;;;;;;5090832;28;20032;-70
2023/05/10 02:10:56;;;;;;;3.80;0.30;;;12.10;99.90;;;;;;5088900;28;20028;-70
2023/05/10 02:13:24;;;;;;;1.98;0.50;;;12.10;99.90;;;;;;5090681;28;20046;-71
2023/05/10 02:15:51;;;;;;;3.60;0.40;;;12.00;99.90;;;;;;5090599;28;20042;-70
2023/05/10 02:18:18;;;;;;;2.70;0.50;;;12.00;99.90;;;;;;5097156;28;20677;-69
2023/05/10 02:20:46;;;;;;;2.53;0.57;;;12.00;99.90;;;;;;5085295;28;20016;-69
2023/05/10 02:23:13;;;;;;;9.20;0.70;;;12.00;99.90;;;;;;5096366;28;20103;-70
2023/05/10 02:25:40;;;;;;;1.08;0.50;;;12.10;99.90;;;;;;5096188;28;20032;-68
2023/05/10 02:28:07;;;;;;;0.90;0.60;;;12.00;99.90;;;;;;5108305;28;20080;-70
2023/05/10 02:30:34;;;;;;;0.68;0.47;;;12.00;99.90;;;;;;5100064;28;20028;-69
2023/05/10 02:33:01;;;;;;;1.70;0.45;;;12.00;99.90;;;;;;5105818;28;20061;-70
2023/05/10 02:35:28;;;;;;;1.63;0.70;;;12.00;99.90;;;;;;5098935;28;20031;-69
2023/05/10 02:37:54;;;;;;;0.93;0.60;;;11.90;99.90;;;;;;5099320;28;20042;-69
2023/05/10 02:40:22;;;;;;;1.30;0.88;;;12.00;99.90;;;;;;5096829;28;20107;-69
2023/05/10 02:42:52;;;;;;;3.40;0.90;;;11.90;99.90;;;;;;5096980;28;20107;-69
2023/05/10 02:45:21;;;;;;;1.10;0.90;;;11.90;99.90;;;;;;5089190;28;20039;-69
2023/05/10 02:47:48;;;;;;;1.73;1.13;;;11.90;99.90;;;;;;5086435;28;20039;-69
2023/05/10 02:50:14;;;;;;;2.13;1.20;;;11.90;99.90;;;;;;5084839;28;20024;-71
2023/05/10 02:52:53;;;;;;;2.17;1.27;;;11.90;99.90;;;;;;5071661;28;20106;-67
2023/05/10 02:55:26;;;;;;;3.13;1.17;;;11.80;99.90;;;;;;5084934;28;20155;-68
2023/05/10 02:57:58;;;;;;;3.70;1.45;;;11.90;99.90;;;;;;5080802;28;20028;-68
2023/05/10 03:00:25;;;;;;;3.30;1.50;;;11.90;99.90;;;;;;5083909;28;20425;-71
2023/05/10 03:02:50;;;;;;;6.85;1.45;;;11.80;99.90;;;;;;5088391;28;20028;-71
2023/05/10 03:05:16;;;;;;;3.10;1.45;;;11.80;99.90;;;;;;5085446;28;20040;-69
2023/05/10 03:07:43;;;;;;;3.25;1.58;;;11.80;99.90;;;;;;5095582;28;20047;-69
2023/05/10 03:10:09;;;;;;;3.97;1.60;;;11.80;99.90;;;;;;5089406;28;20032;-69
2023/05/10 03:12:56;;;;;;;2.70;1.85;;;11.80;99.90;;;;;;5096695;28;20461;-68
2023/05/10 03:16:07;;;;;;;3.92;1.65;;;11.80;99.90;;;;;;5088874;28;21691;-70
2023/05/10 03:18:56;;;;;;;3.15;1.55;;;11.80;99.90;;;;;;5096733;28;20057;-71
2023/05/10 03:21:26;;;;;;;4.90;1.55;;;11.80;99.90;;;;;;5087830;28;20036;-70
2023/05/10 03:23:58;;;;;;;3.78;1.92;;;11.70;99.90;;;;;;5088155;28;20131;-71
2023/05/10 03:26:26;;;;;;;6.03;2.10;;;11.80;99.90;;;;;;5094279;28;20069;-70
2023/05/10 03:28:53;;;;;;;3.13;1.95;;;11.70;99.90;;;;;;5093360;28;20032;-69
2023/05/10 03:31:19;;;;;;;5.82;1.90;;;11.70;99.90;;;;;;5092687;28;20330;-69
2023/05/10 03:33:48;;;;;;;3.45;1.80;;;11.60;99.90;;;;;;5095012;28;20040;-70
2023/05/10 03:36:14;;;;;;;3.03;2.00;;;11.60;99.90;;;;;;5088128;28;20032;-70
2023/05/10 03:38:40;;;;;;;4.75;2.35;;;11.60;99.90;;;;;;5092581;28;20044;-68
2023/05/10 03:41:05;;;;;;;3.92;2.33;;;11.60;99.90;;;;;;5094887;28;20031;-69
2023/05/10 03:43:31;;;;;;;4.10;2.58;;;11.70;99.90;;;;;;5094361;28;20101;-69
2023/05/10 03:45:57;;;;;;;3.03;2.00;;;11.70;99.90;;;;;;5093283;28;20063;-69
2023/05/10 03:48:22;;;;;;;4.43;2.17;;;11.70;99.90;;;;;;5083370;28;20024;-69
2023/05/10 03:50:49;;;;;;;3.55;2.20;;;11.70;99.90;;;;;;5083542;28;20423;-70
2023/05/10 03:53:15;;;;;;;5.22;2.40;;;11.70;99.90;;;;;;5090086;28;20036;-70
2023/05/10 03:55:41;;;;;;;5.05;2.55;;;11.70;99.90;;;;;;5087725;28;20032;-68
2023/05/10 03:58:07;;;;;;;5.00;2.38;;;11.70;99.90;;;;;;5083736;28;20526;-71
2023/05/10 04:00:32;;;;;;;3.72;2.45;;;11.80;99.90;;;;;;5088506;28;20135;-70
2023/05/10 04:02:58;;;;;;;4.68;2.70;;;11.80;99.90;;;;;;5086995;28;20055;-70
2023/05/10 04:05:24;;;;;;;9.57;2.35;;;11.80;99.90;;;;;;5082233;28;20024;-70
2023/05/10 04:07:50;;;;;;;4.70;2.50;;;11.80;99.90;;;;;;5086929;28;20047;-70
2023/05/10 04:10:16;;;;;;;4.82;2.20;;;11.80;99.90;;;;;;5088761;28;20039;-71
2023/05/10 04:12:42;;;;;;;5.22;2.53;;;11.80;99.90;;;;;;5080573;28;20473;-66
2023/05/10 04:15:08;;;;;;;3.67;2.40;;;11.80;99.90;;;;;;5093115;28;20037;-70
2023/05/10 04:17:34;;;;;;;4.00;2.60;;;11.80;99.90;;;;;;5087432;28;20412;-70
2023/05/10 04:19:59;;;;;;;3.70;2.45;;;11.80;99.90;;;;;;5087490;28;20028;-70
2023/05/10 04:22:25;;;;;;;5.88;2.45;;;11.90;99.90;;;;;;5081527;28;20048;-70
2023/05/10 04:24:50;;;;;;;4.10;2.72;;;11.90;99.90;;;;;;5085910;28;20131;-70
2023/05/10 04:27:16;;;;;;;5.88;2.83;;;11.90;99.90;;;;;;5087440;28;20146;-70
2023/05/10 04:29:42;;;;;;;4.90;3.05;;;12.00;99.90;;;;;;5087820;28;20115;-67
2023/05/10 04:32:09;;;;;;;6.53;3.70;;;12.00;99.90;;;;;;5074226;28;20023;-70
2023/05/10 04:34:36;;;;;;;6.00;3.65;;;12.00;99.90;;;;;;5087360;28;20017;-70
2023/05/10 04:37:02;;;;;;;5.90;3.60;;;12.00;99.90;;;;;;5078826;28;20096;-70
2023/05/10 04:39:27;;;;;;;6.00;3.72;;;12.00;99.90;;;;;;5087888;28;20099;-70
2023/05/10 04:41:53;;;;;;;6.28;3.50;;;12.00;99.90;;;;;;5086017;28;20141;-70
2023/05/10 04:44:18;;;;;;;6.32;3.55;;;12.00;99.90;;;;;;5091417;28;20788;-70
2023/05/10 04:46:44;;;;;;;6.28;3.28;;;12.00;99.90;;;;;;5092335;28;20032;-68
2023/05/10 04:49:10;;;;;;;7.57;3.45;;;12.00;99.90;;;;;;5086914;28;20056;-70
2023/05/10 04:51:35;;;;;;;6.40;3.75;;;12.00;99.90;;;;;;5086616;28;20028;-69
2023/05/10 04:54:01;;;;;;;6.70;4.13;;;12.10;99.90;;;;;;5091998;28;20063;-70
2023/05/10 04:56:26;;;;;;;6.35;3.72;;;12.10;99.90;;;;;;5082211;28;20036;-70
2023/05/10 04:58:52;;;;;;;9.60;4.28;;;12.10;99.90;;;;;;5085599;28;20029;-70
2023/05/10 05:01:18;;;;;;;7.82;4.22;;;12.10;99.90;;;;;;5087236;28;20111;-70
2023/05/10 05:03:43;;;;;;;8.15;4.47;;;12.10;99.90;;;;;;5085709;28;20473;-67
2023/05/10 05:06:09;;;;;;;6.57;4.00;;;12.10;99.90;;;;;;5084967;28;20035;-70
2023/05/10 05:08:35;;;;;;;6.97;4.25;;;12.10;99.90;;;;;;5083210;28;20431;-69
2023/05/10 05:11:00;;;;;;;8.07;4.25;;;12.20;99.90;;;;;;5086059;28;20067;-69
2023/05/10 05:13:26;;;;;;;9.13;4.10;;;12.20;99.90;;;;;;5081066;28;20028;-69
2023/05/10 05:15:52;;;;;;;6.22;3.75;;;12.20;99.90;;;;;;5088095;28;20958;-69
2023/05/10 05:18:17;;;;;;;8.75;3.67;;;12.20;99.90;;;;;;5090535;28;20036;-68
2023/05/10 05:20:43;;;;;;;9.25;4.10;;;12.20;99.90;;;;;;5081740;28;20508;-68
2023/05/10 05:23:08;;;;;;;6.60;3.90;;;12.20;99.90;;;;;;5094407;28;20028;-69
2023/05/10 05:25:34;;;;;;;7.40;3.88;;;12.20;99.90;;;;;;5094622;28;20059;-70
2023/05/10 05:28:00;;;;;;;7.72;3.30;;;12.20;99.90;;;;;;5072021;28;20123;-70
2023/05/10 05:30:25;;;;;;;6.78;3.50;;;12.20;99.90;;;;;;5091730;28;20056;-68
2023/05/10 05:32:52;;;;;;;9.88;3.75;;;12.20;99.90;;;;;;5089901;28;20036;-70
2023/05/10 05:35:17;;;;;;;7.07;3.05;;;12.30;99.90;;;;;;5092381;28;20067;-69
2023/05/10 05:37:43;;;;;;;5.97;3.45;;;12.30;99.90;;;;;;5091496;28;20488;-69
2023/05/10 05:40:12;;;;;;;7.30;2.97;;;12.30;99.90;;;;;;5090312;28;20028;-69
2023/05/10 05:42:38;;;;;;;5.68;2.95;;;12.20;99.90;;;;;;5089551;28;20031;-70
2023/05/10 05:45:05;;;;;;;5.20;3.00;;;12.20;99.90;;;;;;5091845;28;20418;-70
2023/05/10 05:47:30;;;;;;;5.88;3.03;;;12.10;99.90;;;;;;5089854;28;20024;-70
2023/05/10 05:49:56;;;;;;;4.20;2.70;;;12.20;99.90;;;;;;5086961;28;20639;-70
2023/05/10 05:52:21;;;;;;;4.63;3.13;;;12.20;99.90;;;;;;5090969;28;20039;-69
2023/05/10 05:54:47;;;;;;;4.13;2.55;;;12.20;99.90;;;;;;5093962;28;20066;-69
2023/05/10 05:57:13;;;;;;;4.72;2.58;;;12.20;99.90;;;;;;5090824;28;20111;-69
2023/05/10 05:59:43;;;;;;;4.10;2.40;;;12.20;99.90;;;;;;5091089;28;20108;-70
2023/05/10 06:02:09;;;;;;;4.57;2.80;;;12.30;99.90;;;;;;5087827;28;20023;-69
2023/05/10 06:04:35;;;;;;;7.50;2.47;;;12.30;99.90;;;;;;5089880;28;20028;-69
2023/05/10 06:07:00;;;;;;;4.13;2.17;;;12.30;99.90;;;;;;5085636;28;20131;-69
2023/05/10 06:09:26;;;;;;;8.07;2.28;;;12.40;99.90;;;;;;5095168;28;20032;-70
2023/05/10 06:11:52;;;;;;;4.63;2.30;;;12.40;99.90;;;;;;5088113;28;20651;-70
2023/05/10 06:14:19;;;;;;;2.80;1.92;;;12.40;99.90;;;;;;5093245;28;20094;-69
2023/05/10 06:16:45;;;;;;;3.50;2.28;;;12.40;99.90;;;;;;5089556;28;20481;-70
2023/05/10 06:19:11;;;;;;;5.93;2.55;;;12.50;99.90;;;;;;5086478;28;20101;-71
2023/05/10 06:21:36;;;;;;;5.50;2.38;;;12.60;99.90;;;;;;5093919;28;20177;-68
2023/05/10 06:24:02;;;;;;;8.35;2.38;;;12.60;99.90;;;;;;5088781;28;20085;-69
2023/05/10 06:26:28;;;;;;;7.18;2.28;;;12.70;99.90;;;;;;5089833;28;20036;-69
2023/05/10 06:28:54;;;;;;;7.20;1.98;;;12.70;99.90;;;;;;5089633;28;20068;-69
2023/05/10 06:31:19;;;;;;;4.53;2.55;;;12.80;99.90;;;;;;5090452;28;20118;-70
2023/05/10 06:33:45;;;;;;;4.95;2.17;;;12.70;99.90;;;;;;5090372;28;20028;-70
2023/05/10 06:36:10;;;;;;;7.88;2.88;;;12.70;99.90;;;;;;5089344;28;20551;-69
2023/05/10 06:38:37;;;;;;;8.07;3.08;;;12.70;99.90;;;;;;5091694;28;20105;-70
2023/05/10 06:41:02;;;;;;;7.88;3.15;;;12.70;99.90;;;;;;5089422;28;20043;-69
2023/05/10 06:43:28;;;;;;;7.57;2.83;;;12.70;99.90;;;;;;5094783;28;20464;-69
2023/05/10 06:45:54;;;;;;;4.55;2.83;;;12.70;99.90;;;;;;5093790;28;20115;-69
2023/05/10 06:48:19;;;;;;;5.68;3.45;;;12.80;99.90;;;;;;5089393;28;20358;-69
2023/05/10 06:50:45;;;;;;;4.82;2.75;;;12.80;99.90;;;;;;5090114;28;20024;-68
2023/05/10 06:53:11;;;;;;;4.50;2.80;;;12.80;99.90;;;;;;5088685;28;20495;-67
2023/05/10 06:55:37;;;;;;;8.00;3.25;;;12.90;99.90;;;;;;5081697;28;20048;-69
2023/05/10 06:58:03;;;;;;;9.88;3.72;;;12.90;99.90;;;;;;5089097;28;20088;-69
2023/05/10 07:00:28;;;;;;;5.70;2.78;;;13.10;99.90;;;;;;5089641;28;20050;-68
2023/05/10 07:02:54;;;;;;;5.78;3.30;;;13.20;99.90;;;;;;5092542;28;20068;-68
2023/05/10 07:05:20;;;;;;;5.07;3.25;;;13.20;99.90;;;;;;5087752;28;20039;-69
2023/05/10 07:07:46;;;;;;;6.90;3.03;;;13.10;99.90;;;;;;5099948;28;20471;-69
2023/05/10 07:10:12;;;;;;;5.00;3.30;;;13.10;99.90;;;;;;5088507;28;20023;-68
2023/05/10 07:12:38;;;;;;;11.82;3.08;;;13.10;99.90;;;;;;5093268;28;20039;-68
2023/05/10 07:15:04;;;;;;;5.93;3.10;;;13.10;99.90;;;;;;5090495;28;20515;-71
2023/05/10 07:17:30;;;;;;;7.88;3.60;;;13.20;99.90;;;;;;5089201;28;20121;-71
2023/05/10 07:19:56;;;;;;;5.57;3.55;;;13.20;99.90;;;;;;5086324;28;20066;-69
2023/05/10 07:22:21;;;;;;;5.28;3.30;;;13.30;99.90;;;;;;5091680;28;20032;-71
2023/05/10 07:24:47;;;;;;;7.50;3.55;;;13.20;99.90;;;;;;5089301;28;20494;-69
2023/05/10 07:27:13;;;;;;;5.97;3.58;;;13.20;99.90;;;;;;5088785;28;20050;-70
2023/05/10 07:29:39;;;;;;;6.60;3.97;;;13.10;99.90;;;;;;5089135;28;20024;-70
2023/05/10 07:32:05;;;;;;;8.18;3.08;;;13.20;99.90;;;;;;5087911;28;20032;-70
2023/05/10 07:34:31;;;;;;;5.95;3.72;;;13.20;99.90;;;;;;5089434;28;20047;-70
2023/05/10 07:37:00;;;;;;;7.28;3.92;;;13.20;99.90;;;;;;5087684;28;20296;-70
2023/05/10 07:39:26;;;;;;;7.15;3.92;;;13.30;99.90;;;;;;5089322;28;20483;-70
2023/05/10 07:41:52;;;;;;;6.93;3.90;;;13.40;99.90;;;;;;5088278;28;20032;-68
2023/05/10 07:44:20;;;;;;;8.77;3.90;;;13.50;99.90;;;;;;5094788;28;20507;-71
2023/05/10 07:46:47;;;;;;;9.00;3.85;;;13.50;99.90;;;;;;5091209;28;20058;-70
2023/05/10 07:49:13;;;;;;;8.20;3.75;;;13.50;99.90;;;;;;5087745;28;20035;-69
2023/05/10 07:51:38;;;;;;;8.25;4.07;;;13.60;99.90;;;;;;5088510;28;20024;-69
2023/05/10 07:54:04;;;;;;;8.48;3.88;;;13.60;99.90;;;;;;5087339;28;20460;-69
2023/05/10 07:56:32;;;;;;;10.48;3.88;;;13.70;99.90;;;;;;5087082;28;20057;-69
2023/05/10 07:59:03;;;;;;;7.50;4.28;;;13.70;99.90;;;;;;5087553;28;20032;-70
2023/05/10 08:01:32;;;;;;;7.28;3.90;;;13.50;99.90;;;;;;5093562;28;20024;-70
2023/05/10 08:03:57;;;;;;;7.25;4.10;;;13.40;99.90;;;;;;5087458;28;20040;-69
2023/05/10 08:06:23;;;;;;;7.85;4.28;;;13.50;99.90;;;;;;5088517;28;20103;-68
2023/05/10 08:08:50;;;;;;;14.55;4.30;;;13.60;99.90;;;;;;5088374;28;20124;-68
2023/05/10 08:11:20;;;;;;;7.78;4.57;;;13.50;99.90;;;;;;5087998;28;20733;-68
2023/05/10 08:13:46;;;;;;;6.10;3.80;;;13.50;99.90;;;;;;5086962;28;20421;-69
2023/05/10 08:16:12;;;;;;;7.38;4.00;;;13.40;99.90;;;;;;5087060;28;20038;-70
2023/05/10 08:18:38;;;;;;;8.50;4.13;;;13.30;99.90;;;;;;5088170;28;20032;-69
2023/05/10 08:21:04;;;;;;;7.72;3.90;;;13.20;99.90;;;;;;5103019;28;20177;-69
2023/05/10 08:23:30;;;;;;;3.90;2.88;;;13.30;99.90;;;;;;5081682;28;20024;-70
2023/05/10 08:25:56;;;;;;;4.03;2.20;;;13.20;99.90;;;;;;5087560;28;20039;-68
2023/05/10 08:28:22;;;;;;;4.80;2.78;;;13.20;99.90;;;;;;5088895;28;20040;-68
2023/05/10 08:30:47;;;;;;;4.32;2.47;;;13.20;99.90;;;;;;5074465;28;20040;-69
2023/05/10 08:33:13;;;;;;;5.35;2.70;;;13.30;99.90;;;;;;5087257;28;20034;-69
2023/05/10 08:35:39;;;;;;;5.40;2.65;;;13.40;99.90;;;;;;5088049;28;20039;-69
2023/05/10 08:38:04;;;;;;;4.30;2.60;;;13.60;99.90;;;;;;5076803;28;20040;-70
2023/05/10 08:40:30;;;;;;;4.30;2.80;;;13.60;99.90;;;;;;5088870;28;20074;-69
2023/05/10 08:43:06;;;;;;;6.00;3.10;;;13.60;99.90;;;;;;5089364;28;20112;-68
2023/05/10 08:45:36;;;;;;;4.10;2.80;;;13.50;99.90;;;;;;5087826;28;20400;-71
2023/05/10 08:48:02;;;;;;;4.93;3.13;;;13.40;99.90;;;;;;5085793;28;20047;-69
2023/05/10 08:50:29;;;;;;;5.05;3.00;;;13.40;99.90;;;;;;5091976;28;20028;-69
2023/05/10 08:52:59;;;;;;;4.22;2.22;;;13.40;99.90;;;;;;5091775;28;20373;-68
2023/05/10 08:55:26;;;;;;;2.58;1.67;;;13.40;99.90;;;;;;5092198;28;20558;-69
2023/05/10 08:57:51;;;;;;;1.92;1.40;;;13.40;99.90;;;;;;5092133;28;20056;-70
2023/05/10 09:00:19;;;;;;;4.53;1.60;;;13.30;99.90;;;;;;5090100;28;20054;-70
2023/05/10 09:02:48;;;;;;;3.10;1.80;;;13.40;99.90;;;;;;5092414;28;20493;-69
2023/05/10 09:05:15;;;;;;;3.35;1.80;;;13.50;99.90;;;;;;5090931;28;20060;-70
2023/05/10 09:07:41;;;;;;;3.65;1.80;;;13.50;99.90;;;;;;5091755;28;20536;-69
2023/05/10 09:10:09;;;;;;;2.60;1.70;;;13.50;99.90;;;;;;5091060;28;20111;-69
2023/05/10 09:12:35;;;;;;;5.63;1.85;;;13.50;99.90;;;;;;5092139;28;20028;-69
2023/05/10 09:15:03;;;;;;;2.60;1.63;;;13.60;99.90;;;;;;5097718;28;20468;-69
2023/05/10 09:17:29;;;;;;;6.60;1.90;;;13.70;99.90;;;;;;5091695;28;20036;-70
2023/05/10 09:19:59;;;;;;;6.75;2.00;;;13.80;99.90;;;;;;5091162;28;20040;-70
2023/05/10 09:22:25;;;;;;;6.72;2.17;;;13.90;99.90;;;;;;5090690;28;20107;-69
2023/05/10 09:25:11;;;;;;;3.33;2.10;;;13.80;99.90;;;;;;5096149;28;20070;-70
2023/05/10 09:27:38;;;;;;;3.70;1.90;;;13.80;99.90;;;;;;5091721;28;20603;-69
2023/05/10 09:30:05;;;;;;;2.05;1.30;;;13.80;99.90;;;;;;5090634;28;20028;-68
2023/05/10 09:32:37;;;;;;;3.35;1.52;;;13.80;99.90;;;;;;5091380;28;20524;-70
2023/05/10 09:35:07;;;;;;;5.97;2.72;;;13.80;99.90;;;;;;5090256;28;20024;-68
2023/05/10 09:37:32;;;;;;;3.30;1.90;;;13.90;99.90;;;;;;5083328;28;20036;-70
2023/05/10 09:39:58;;;;;;;4.50;1.65;;;14.00;99.90;;;;;;5097048;28;20031;-67
2023/05/10 09:42:24;;;;;;;5.93;1.60;;;14.00;99.90;;;;;;5092083;28;20089;-68
2023/05/10 09:44:49;;;;;;;2.75;1.50;;;14.00;99.90;;;;;;5097184;28;20435;-69
2023/05/10 09:47:21;;;;;;;2.20;1.23;;;14.10;99.90;;;;;;5090088;28;20036;-69
2023/05/10 09:49:51;;;;;;;3.63;1.52;;;14.10;99.90;;;;;;5090945;28;20107;-70
2023/05/10 09:52:16;;;;;;;1.83;1.27;;;14.10;99.90;;;;;;5090105;28;20036;-69
2023/05/10 09:54:52;;;;;;;7.72;1.60;;;14.30;99.90;;;;;;5082708;28;20048;-69
2023/05/10 09:57:22;;;;;;;3.13;1.50;;;14.50;99.90;;;;;;5089272;28;20029;-69
2023/05/10 09:59:49;;;;;;;2.65;1.30;;;14.50;99.90;;;;;;5088240;28;20024;-69
2023/05/10 10:02:15;;;;;;;2.35;1.40;;;14.50;99.90;;;;;;5090161;28;20028;-70
2023/05/10 10:04:41;;;;;;;3.08;1.30;;;14.60;99.90;;;;;;5090780;28;20058;-68
2023/05/10 10:07:07;;;;;;;1.55;1.05;;;14.60;99.90;;;;;;5090114;28;20527;-69
2023/05/10 10:09:34;;;;;;;3.30;1.17;;;14.80;99.90;;;;;;5090977;28;20039;-70
2023/05/10 10:12:00;;;;;;;2.33;1.30;;;15.00;99.90;;;;;;5092450;28;20042;-68
2023/05/10 10:14:26;;;;;;;2.75;1.25;;;14.80;99.90;;;;;;5101488;28;20028;-69
2023/05/10 10:16:52;;;;;;;5.75;1.50;;;14.80;99.90;;;;;;5090448;28;20400;-68
2023/05/10 10:19:21;;;;;;;2.97;1.20;;;14.90;99.90;;;;;;5089743;28;20362;-68
2023/05/10 10:21:50;;;;;;;2.47;1.33;;;15.00;99.90;;;;;;5090286;28;20028;-70
2023/05/10 10:24:16;;;;;;;2.40;1.42;;;15.10;99.90;;;;;;5089891;28;20031;-68
2023/05/10 10:26:47;;;;;;;2.08;1.40;;;15.10;99.90;;;;;;5091448;28;20040;-68
2023/05/10 10:29:24;;;;;;;4.47;1.13;;;14.90;99.90;;;;;;5089828;28;20495;-69
2023/05/10 10:32:02;;;;;;;6.75;1.27;;;14.60;99.90;;;;;;5090263;28;20059;-70
2023/05/10 10:34:29;;;;;;;3.15;0.80;;;14.50;99.90;;;;;;5089980;28;20028;-70
2023/05/10 10:36:57;;;;;;;3.88;1.08;;;14.60;99.90;;;;;;5090229;28;20036;-69
2023/05/10 10:39:25;;;;;;;2.63;1.08;;;14.50;99.90;;;;;;5089543;28;20024;-70
2023/05/10 10:41:55;;;;;;;1.50;1.10;;;14.50;99.90;;;;;;5093677;28;20034;-68
2023/05/10 10:44:30;;;;;;;;;;;14.50;99.90;;;;;;5091620;28;20094;-68
2023/05/10 10:47:09;;;;;;;1.10;0.93;;;14.50;99.90;;;;;;5090216;28;20368;-67
2023/05/10 10:49:57;;;;;;;1.45;0.90;;;14.70;99.90;;;;;;5089289;28;20032;-68
2023/05/10 10:52:32;;;;;;;4.20;1.00;;;14.80;99.90;;;;;;5070795;28;20149;-70
2023/05/10 10:55:01;;;;;;;1.73;0.88;;;15.00;99.90;;;;;;5089355;28;20052;-68
2023/05/10 10:57:30;;;;;;;2.60;0.98;;;14.90;99.90;;;;;;5082434;28;20035;-69
2023/05/10 11:00:17;;;;;;;1.67;0.70;;;14.90;99.90;;;;;;5089475;28;20452;-69
2023/05/10 11:03:04;;;;;;;0.80;0.60;;;15.00;99.90;;;;;;5083611;28;20032;-68
2023/05/10 11:05:40;;;;;;;0.70;0.50;;;15.00;99.90;;;;;;5081146;28;20472;-68
2023/05/10 11:08:19;;;;;;;1.90;0.60;;;14.80;99.90;;;;;;5089006;28;20039;-67
2023/05/10 11:11:00;;;;;;;0.60;0.50;;;14.80;99.90;;;;;;5089932;28;20369;-69
2023/05/10 11:13:43;;;;;;;1.33;0.40;;;14.80;99.90;;;;;;5093695;28;20068;-68
2023/05/10 11:16:12;;;;;;;1.38;0.57;;;14.90;99.90;;;;;;5088641;28;20031;-67
2023/05/10 11:18:38;;;;;;;1.60;0.70;;;15.00;99.90;;;;;;5086914;28;20041;-69
2023/05/10 11:21:06;;;;;;;1.85;0.60;;;15.10;99.90;;;;;;5089275;28;20721;-66
2023/05/10 11:23:56;;;;;;;4.88;1.77;;;15.20;99.90;;;;;;5089111;28;20059;-69
2023/05/10 11:26:25;;;;;;;7.07;0.88;;;15.30;99.90;;;;;;5087891;28;20035;-68
2023/05/10 11:28:56;;;;;;;2.47;0.70;;;15.40;99.90;;;;;;5088896;28;20028;-69
2023/05/10 11:31:22;;;;;;;1.30;0.80;;;15.40;99.90;;;;;;5088294;28;20028;-67
2023/05/10 11:33:53;;;;;;;1.75;0.90;;;15.40;99.90;;;;;;5088871;28;20124;-67
2023/05/10 11:36:21;;;;;;;1.13;0.80;;;15.60;99.90;;;;;;5088066;28;20024;-69
2023/05/10 11:38:48;;;;;;;1.15;0.90;;;15.80;99.90;;;;;;5088675;28;20043;-67
2023/05/10 11:41:15;;;;;;;1.58;1.00;;;15.90;99.90;;;;;;5086503;28;20028;-67
2023/05/10 11:43:41;;;;;;;3.40;0.98;;;16.00;99.90;;;;;;5094193;28;20032;-68
2023/05/10 11:46:09;;;;;;;4.00;1.33;;;16.30;99.90;;;;;;5088497;28;20063;-66
2023/05/10 11:48:35;;;;;;;3.45;1.65;;;16.40;99.90;;;;;;5088004;28;20099;-69
2023/05/10 11:51:01;;;;;;;1.83;1.17;;;16.30;99.90;;;;;;5088042;28;20028;-69
2023/05/10 11:53:29;;;;;;;3.60;1.02;;;16.00;99.90;;;;;;5089024;28;20047;-67
2023/05/10 11:55:54;;;;;;;2.63;1.30;;;15.80;99.90;;;;;;5088863;28;20040;-67
2023/05/10 11:58:21;;;;;;;1.85;1.15;;;15.60;99.90;;;;;;5087712;28;20028;-66
2023/05/10 12:00:47;;;;;;;1.52;1.05;;;15.30;99.90;;;;;;5080453;28;20035;-66
2023/05/10 12:03:14;;;;;;;4.82;1.10;;;15.20;99.90;;;;;;5087881;28;20067;-68
2023/05/10 12:05:41;;;;;;;1.55;0.80;;;15.00;99.90;;;;;;5088222;28;20067;-67
2023/05/10 12:08:14;;;;;;;3.25;1.13;;;14.90;99.90;;;;;;5094476;28;20036;-67
2023/05/10 12:10:40;;;;;;;2.95;1.00;;;14.90;99.90;;;;;;5088535;28;20105;-70
2023/05/10 12:13:12;;;;;;;2.03;1.02;;;14.80;99.90;;;;;;5088528;28;20646;-68
2023/05/10 12:15:38;;;;;;;3.20;0.90;;;14.60;99.90;;;;;;5088497;28;20047;-66
2023/05/10 12:18:05;;;;;;;2.35;1.05;;;14.60;99.90;;;;;;5088166;28;20028;-67
2023/05/10 12:20:31;;;;;;;2.55;1.05;;;14.60;99.90;;;;;;5087029;28;20042;-67
2023/05/10 12:23:02;;;;;;;1.70;1.10;;;14.50;99.90;;;;;;5093116;28;20032;-68
2023/05/10 12:25:33;;;;;;;6.25;1.08;;;14.50;99.90;;;;;;5087653;28;20032;-68
2023/05/10 12:28:02;;;;;;;1.70;1.00;;;14.50;99.90;;;;;;5088221;28;20106;-67
2023/05/10 12:30:29;;;;;;;2.50;1.27;;;14.40;99.90;;;;;;5087564;28;20040;-67
2023/05/10 12:33:17;;;;;;;3.38;1.35;;;14.40;99.90;;;;;;5088216;28;20085;-66
2023/05/10 12:35:47;;;;;;;1.65;1.20;;;14.60;99.90;;;;;;5083373;28;20028;-67
2023/05/10 12:38:30;;;;;;;;;;;14.60;99.90;;;;;;5087010;28;20062;-66
2023/05/10 12:41:07;;;;;;;6.82;0.98;;;14.60;99.90;;;;;;5088222;28;20385;-68
2023/05/10 12:43:34;;;;;;;3.97;0.75;;;14.70;99.90;;;;;;5091804;28;20027;-68
2023/05/10 12:46:05;;;;;;;5.40;0.90;;;14.70;99.90;;;;;;5087779;28;20028;-68
2023/05/10 12:48:31;;;;;;;1.15;0.70;;;14.60;99.90;;;;;;5087302;28;20032;-68
2023/05/10 12:50:57;;;;;;;1.95;0.70;;;14.30;99.90;;;;;;5088955;28;20033;-68
2023/05/10 12:53:22;;;;;;;2.70;0.80;;;14.20;99.90;;;;;;5088708;28;20054;-69
2023/05/10 12:55:48;;;;;;;8.43;1.00;;;14.00;99.90;;;;;;5088194;28;20063;-68
2023/05/10 12:58:14;;;;;;;2.92;1.38;;;13.70;99.90;;;;;;5087233;28;20082;-67